sensor_id;sensor_type;location;lat;lon;timestamp;P1;durP1;ratioP1;P2;durP2;ratioP2
45932;SDS011;51011;46.790;17.184;2023-09-19T00:01:14;1.55;;;1.45;;
45932;SDS011;51011;46.790;17.184;2023-09-19T00:03:40;3.15;;;1.88;;
45932;SDS011;51011;46.790;17.184;2023-09-19T00:06:07;0.82;;;0.82;;
45932;SDS011;51011;46.790;17.184;2023-09-19T00:08:33;3.22;;;2.15;;
45932;SDS011;51011;46.790;17.184;2023-09-19T00:10:59;1.27;;;1.08;;
45932;SDS011;51011;46.790;17.184;2023-09-19T00:13:31;7.55;;;1.83;;
45932;SDS011;51011;46.790;17.184;2023-09-19T00:15:58;2.97;;;1.05;;
45932;SDS011;51011;46.790;17.184;2023-09-19T00:18:24;1.20;;;1.13;;
45932;SDS011;51011;46.790;17.184;2023-09-19T00:20:57;10.45;;;2.30;;
45932;SDS011;51011;46.790;17.184;2023-09-19T00:23:22;2.72;;;1.77;;
45932;SDS011;51011;46.790;17.184;2023-09-19T00:25:49;1.25;;;0.93;;
45932;SDS011;51011;46.790;17.184;2023-09-19T00:28:16;1.52;;;0.88;;
45932;SDS011;51011;46.790;17.184;2023-09-19T00:30:43;3.58;;;1.52;;
45932;SDS011;51011;46.790;17.184;2023-09-19T00:33:09;3.22;;;1.17;;
45932;SDS011;51011;46.790;17.184;2023-09-19T00:35:36;1.63;;;1.25;;
45932;SDS011;51011;46.790;17.184;2023-09-19T00:38:02;11.80;;;1.13;;
45932;SDS011;51011;46.790;17.184;2023-09-19T00:40:29;0.70;;;0.70;;
45932;SDS011;51011;46.790;17.184;2023-09-19T00:42:57;1.10;;;0.82;;
45932;SDS011;51011;46.790;17.184;2023-09-19T00:45:25;1.20;;;1.08;;
45932;SDS011;51011;46.790;17.184;2023-09-19T00:47:50;1.10;;;0.80;;
45932;SDS011;51011;46.790;17.184;2023-09-19T00:50:21;0.90;;;0.90;;
45932;SDS011;51011;46.790;17.184;2023-09-19T00:52:48;3.65;;;1.83;;
45932;SDS011;51011;46.790;17.184;2023-09-19T00:55:15;6.47;;;3.03;;
45932;SDS011;51011;46.790;17.184;2023-09-19T00:57:45;0.35;;;0.32;;
45932;SDS011;51011;46.790;17.184;2023-09-19T01:00:11;1.13;;;1.05;;
45932;SDS011;51011;46.790;17.184;2023-09-19T01:16:07;1.30;;;0.90;;
45932;SDS011;51011;46.790;17.184;2023-09-19T01:19:07;0.52;;;0.52;;
45932;SDS011;51011;46.790;17.184;2023-09-19T01:29:50;1.58;;;1.48;;
45932;SDS011;51011;46.790;17.184;2023-09-19T01:32:18;0.55;;;0.55;;
45932;SDS011;51011;46.790;17.184;2023-09-19T01:34:48;0.50;;;0.50;;
45932;SDS011;51011;46.790;17.184;2023-09-19T01:37:19;1.20;;;1.05;;
45932;SDS011;51011;46.790;17.184;2023-09-19T01:39:59;3.00;;;1.48;;
45932;SDS011;51011;46.790;17.184;2023-09-19T01:48:25;7.82;;;1.23;;
45932;SDS011;51011;46.790;17.184;2023-09-19T01:51:02;0.98;;;0.68;;
45932;SDS011;51011;46.790;17.184;2023-09-19T01:53:45;1.38;;;1.05;;
45932;SDS011;51011;46.790;17.184;2023-09-19T01:56:16;5.22;;;2.25;;
45932;SDS011;51011;46.790;17.184;2023-09-19T01:58:48;2.15;;;1.95;;
45932;SDS011;51011;46.790;17.184;2023-09-19T02:01:16;1.70;;;1.50;;
45932;SDS011;51011;46.790;17.184;2023-09-19T02:03:44;1.48;;;1.13;;
45932;SDS011;51011;46.790;17.184;2023-09-19T02:06:15;0.90;;;0.90;;
45932;SDS011;51011;46.790;17.184;2023-09-19T02:08:42;0.95;;;0.80;;
45932;SDS011;51011;46.790;17.184;2023-09-19T02:11:10;1.42;;;1.10;;
45932;SDS011;51011;46.790;17.184;2023-09-19T02:13:36;1.67;;;1.52;;
45932;SDS011;51011;46.790;17.184;2023-09-19T02:16:03;0.43;;;0.43;;
45932;SDS011;51011;46.790;17.184;2023-09-19T02:18:29;1.42;;;1.17;;
45932;SDS011;51011;46.790;17.184;2023-09-19T02:20:56;2.55;;;1.38;;
45932;SDS011;51011;46.790;17.184;2023-09-19T02:23:24;1.40;;;1.30;;
45932;SDS011;51011;46.790;17.184;2023-09-19T02:25:53;3.40;;;2.25;;
45932;SDS011;51011;46.790;17.184;2023-09-19T02:28:20;2.90;;;1.15;;
45932;SDS011;51011;46.790;17.184;2023-09-19T02:30:47;0.95;;;0.95;;
45932;SDS011;51011;46.790;17.184;2023-09-19T02:33:16;3.92;;;1.13;;
45932;SDS011;51011;46.790;17.184;2023-09-19T02:35:42;0.98;;;0.65;;
45932;SDS011;51011;46.790;17.184;2023-09-19T02:38:08;1.80;;;1.70;;
45932;SDS011;51011;46.790;17.184;2023-09-19T02:40:36;1.40;;;1.25;;
45932;SDS011;51011;46.790;17.184;2023-09-19T02:43:02;2.92;;;1.35;;
45932;SDS011;51011;46.790;17.184;2023-09-19T02:45:28;0.50;;;0.50;;
45932;SDS011;51011;46.790;17.184;2023-09-19T02:47:56;1.60;;;0.98;;
45932;SDS011;51011;46.790;17.184;2023-09-19T02:50:22;2.28;;;0.98;;
45932;SDS011;51011;46.790;17.184;2023-09-19T02:52:48;5.07;;;1.75;;
45932;SDS011;51011;46.790;17.184;2023-09-19T02:55:15;6.60;;;1.67;;
45932;SDS011;51011;46.790;17.184;2023-09-19T02:57:45;9.65;;;1.10;;
45932;SDS011;51011;46.790;17.184;2023-09-19T03:00:20;0.75;;;0.70;;
45932;SDS011;51011;46.790;17.184;2023-09-19T03:02:50;1.35;;;1.25;;
45932;SDS011;51011;46.790;17.184;2023-09-19T03:05:18;9.32;;;1.42;;
45932;SDS011;51011;46.790;17.184;2023-09-19T03:07:44;0.82;;;0.82;;
45932;SDS011;51011;46.790;17.184;2023-09-19T03:10:12;0.95;;;0.95;;
45932;SDS011;51011;46.790;17.184;2023-09-19T03:12:41;0.93;;;0.93;;
45932;SDS011;51011;46.790;17.184;2023-09-19T03:15:07;1.85;;;1.08;;
45932;SDS011;51011;46.790;17.184;2023-09-19T03:17:36;1.27;;;0.98;;
45932;SDS011;51011;46.790;17.184;2023-09-19T03:20:03;1.55;;;1.42;;
45932;SDS011;51011;46.790;17.184;2023-09-19T03:22:34;0.77;;;0.75;;
45932;SDS011;51011;46.790;17.184;2023-09-19T03:25:00;12.05;;;1.45;;
45932;SDS011;51011;46.790;17.184;2023-09-19T03:27:26;0.75;;;0.75;;
45932;SDS011;51011;46.790;17.184;2023-09-19T03:29:52;1.35;;;1.13;;
45932;SDS011;51011;46.790;17.184;2023-09-19T03:32:19;1.35;;;1.25;;
45932;SDS011;51011;46.790;17.184;2023-09-19T03:34:45;5.03;;;2.70;;
45932;SDS011;51011;46.790;17.184;2023-09-19T03:37:14;1.23;;;0.98;;
45932;SDS011;51011;46.790;17.184;2023-09-19T03:39:41;2.95;;;1.33;;
45932;SDS011;51011;46.790;17.184;2023-09-19T03:42:06;1.48;;;1.27;;
45932;SDS011;51011;46.790;17.184;2023-09-19T03:44:33;3.63;;;1.45;;
45932;SDS011;51011;46.790;17.184;2023-09-19T03:46:59;16.35;;;1.13;;
45932;SDS011;51011;46.790;17.184;2023-09-19T03:49:26;1.88;;;0.93;;
45932;SDS011;51011;46.790;17.184;2023-09-19T03:51:54;0.88;;;0.88;;
45932;SDS011;51011;46.790;17.184;2023-09-19T03:54:20;1.58;;;1.10;;
45932;SDS011;51011;46.790;17.184;2023-09-19T03:56:45;4.50;;;2.55;;
45932;SDS011;51011;46.790;17.184;2023-09-19T03:59:11;1.23;;;1.00;;
45932;SDS011;51011;46.790;17.184;2023-09-19T04:01:37;1.85;;;1.17;;
45932;SDS011;51011;46.790;17.184;2023-09-19T04:04:03;0.00;;;0.00;;
45932;SDS011;51011;46.790;17.184;2023-09-19T04:06:35;1.13;;;0.30;;
45932;SDS011;51011;46.790;17.184;2023-09-19T04:09:01;0.30;;;0.30;;
45932;SDS011;51011;46.790;17.184;2023-09-19T04:11:29;4.32;;;0.20;;
45932;SDS011;51011;46.790;17.184;2023-09-19T04:13:56;0.32;;;0.15;;
45932;SDS011;51011;46.790;17.184;2023-09-19T04:16:22;0.10;;;0.10;;
45932;SDS011;51011;46.790;17.184;2023-09-19T04:18:47;0.47;;;0.47;;
45932;SDS011;51011;46.790;17.184;2023-09-19T04:21:13;0.32;;;0.32;;
45932;SDS011;51011;46.790;17.184;2023-09-19T04:23:38;0.22;;;0.22;;
45932;SDS011;51011;46.790;17.184;2023-09-19T04:26:04;0.17;;;0.17;;
45932;SDS011;51011;46.790;17.184;2023-09-19T04:28:30;0.40;;;0.28;;
45932;SDS011;51011;46.790;17.184;2023-09-19T04:30:56;0.43;;;0.30;;
45932;SDS011;51011;46.790;17.184;2023-09-19T04:33:24;0.25;;;0.25;;
45932;SDS011;51011;46.790;17.184;2023-09-19T04:35:50;0.10;;;0.10;;
45932;SDS011;51011;46.790;17.184;2023-09-19T04:38:17;0.03;;;0.03;;
45932;SDS011;51011;46.790;17.184;2023-09-19T04:40:44;0.10;;;0.10;;
45932;SDS011;51011;46.790;17.184;2023-09-19T04:43:10;0.10;;;0.10;;
45932;SDS011;51011;46.790;17.184;2023-09-19T04:45:35;0.17;;;0.17;;
45932;SDS011;51011;46.790;17.184;2023-09-19T04:48:01;1.48;;;0.30;;
45932;SDS011;51011;46.790;17.184;2023-09-19T04:50:27;0.13;;;0.13;;
45932;SDS011;51011;46.790;17.184;2023-09-19T04:52:53;0.10;;;0.10;;
45932;SDS011;51011;46.790;17.184;2023-09-19T04:55:19;0.00;;;0.00;;
45932;SDS011;51011;46.790;17.184;2023-09-19T04:57:49;0.32;;;0.32;;
45932;SDS011;51011;46.790;17.184;2023-09-19T05:00:16;0.08;;;0.08;;
45932;SDS011;51011;46.790;17.184;2023-09-19T05:02:48;0.10;;;0.10;;
45932;SDS011;51011;46.790;17.184;2023-09-19T05:05:17;0.10;;;0.10;;
45932;SDS011;51011;46.790;17.184;2023-09-19T05:07:44;0.00;;;0.00;;
45932;SDS011;51011;46.790;17.184;2023-09-19T05:10:10;0.00;;;0.00;;
45932;SDS011;51011;46.790;17.184;2023-09-19T05:12:37;0.00;;;0.00;;
45932;SDS011;51011;46.790;17.184;2023-09-19T05:15:03;0.00;;;0.00;;
45932;SDS011;51011;46.790;17.184;2023-09-19T05:17:32;0.00;;;0.00;;
45932;SDS011;51011;46.790;17.184;2023-09-19T05:20:01;0.00;;;0.00;;
45932;SDS011;51011;46.790;17.184;2023-09-19T05:22:46;0.00;;;0.00;;
45932;SDS011;51011;46.790;17.184;2023-09-19T05:25:12;0.38;;;0.38;;
45932;SDS011;51011;46.790;17.184;2023-09-19T05:27:44;0.00;;;0.00;;
45932;SDS011;51011;46.790;17.184;2023-09-19T05:30:10;0.00;;;0.00;;
45932;SDS011;51011;46.790;17.184;2023-09-19T05:32:39;0.00;;;0.00;;
45932;SDS011;51011;46.790;17.184;2023-09-19T05:35:23;0.00;;;0.00;;
45932;SDS011;51011;46.790;17.184;2023-09-19T05:38:26;0.15;;;0.15;;
45932;SDS011;51011;46.790;17.184;2023-09-19T05:40:52;0.55;;;0.45;;
45932;SDS011;51011;46.790;17.184;2023-09-19T05:43:19;0.10;;;0.10;;
45932;SDS011;51011;46.790;17.184;2023-09-19T05:45:44;0.22;;;0.10;;
45932;SDS011;51011;46.790;17.184;2023-09-19T05:48:11;0.00;;;0.00;;
45932;SDS011;51011;46.790;17.184;2023-09-19T05:50:38;0.32;;;0.32;;
45932;SDS011;51011;46.790;17.184;2023-09-19T05:53:04;0.05;;;0.05;;
45932;SDS011;51011;46.790;17.184;2023-09-19T05:55:30;0.00;;;0.00;;
45932;SDS011;51011;46.790;17.184;2023-09-19T05:57:55;0.05;;;0.05;;
45932;SDS011;51011;46.790;17.184;2023-09-19T06:00:22;0.00;;;0.00;;
45932;SDS011;51011;46.790;17.184;2023-09-19T06:02:51;0.70;;;0.68;;
45932;SDS011;51011;46.790;17.184;2023-09-19T06:05:21;0.70;;;0.28;;
45932;SDS011;51011;46.790;17.184;2023-09-19T06:07:46;0.00;;;0.00;;
45932;SDS011;51011;46.790;17.184;2023-09-19T06:10:12;0.17;;;0.17;;
45932;SDS011;51011;46.790;17.184;2023-09-19T06:12:40;0.00;;;0.00;;
45932;SDS011;51011;46.790;17.184;2023-09-19T06:15:09;1.10;;;0.75;;
45932;SDS011;51011;46.790;17.184;2023-09-19T06:17:40;0.20;;;0.20;;
45932;SDS011;51011;46.790;17.184;2023-09-19T06:20:08;0.15;;;0.15;;
45932;SDS011;51011;46.790;17.184;2023-09-19T06:22:40;0.77;;;0.20;;
45932;SDS011;51011;46.790;17.184;2023-09-19T06:25:10;0.00;;;0.00;;
45932;SDS011;51011;46.790;17.184;2023-09-19T06:27:37;0.20;;;0.20;;
45932;SDS011;51011;46.790;17.184;2023-09-19T06:30:07;0.43;;;0.43;;
45932;SDS011;51011;46.790;17.184;2023-09-19T06:32:34;0.10;;;0.10;;
45932;SDS011;51011;46.790;17.184;2023-09-19T06:35:00;1.23;;;1.13;;
45932;SDS011;51011;46.790;17.184;2023-09-19T06:37:29;13.25;;;1.98;;
45932;SDS011;51011;46.790;17.184;2023-09-19T06:39:55;0.85;;;0.40;;
45932;SDS011;51011;46.790;17.184;2023-09-19T06:42:22;0.30;;;0.30;;
45932;SDS011;51011;46.790;17.184;2023-09-19T06:44:48;0.10;;;0.10;;
45932;SDS011;51011;46.790;17.184;2023-09-19T06:47:14;0.30;;;0.30;;
45932;SDS011;51011;46.790;17.184;2023-09-19T06:49:41;0.00;;;0.00;;
45932;SDS011;51011;46.790;17.184;2023-09-19T06:52:09;0.20;;;0.20;;
45932;SDS011;51011;46.790;17.184;2023-09-19T06:54:35;0.10;;;0.10;;
45932;SDS011;51011;46.790;17.184;2023-09-19T06:57:01;0.40;;;0.38;;
45932;SDS011;51011;46.790;17.184;2023-09-19T06:59:26;0.05;;;0.05;;
45932;SDS011;51011;46.790;17.184;2023-09-19T07:01:52;0.00;;;0.00;;
45932;SDS011;51011;46.790;17.184;2023-09-19T07:04:18;0.10;;;0.10;;
45932;SDS011;51011;46.790;17.184;2023-09-19T07:06:49;0.00;;;0.00;;
45932;SDS011;51011;46.790;17.184;2023-09-19T07:09:15;0.43;;;0.32;;
45932;SDS011;51011;46.790;17.184;2023-09-19T07:11:41;0.10;;;0.10;;
45932;SDS011;51011;46.790;17.184;2023-09-19T07:14:07;0.85;;;0.43;;
45932;SDS011;51011;46.790;17.184;2023-09-19T07:16:39;0.90;;;0.65;;
45932;SDS011;51011;46.790;17.184;2023-09-19T07:19:07;0.55;;;0.20;;
45932;SDS011;51011;46.790;17.184;2023-09-19T07:21:33;0.13;;;0.13;;
45932;SDS011;51011;46.790;17.184;2023-09-19T07:24:00;0.20;;;0.20;;
45932;SDS011;51011;46.790;17.184;2023-09-19T07:26:26;0.00;;;0.00;;
45932;SDS011;51011;46.790;17.184;2023-09-19T07:28:53;0.00;;;0.00;;
45932;SDS011;51011;46.790;17.184;2023-09-19T07:31:19;0.00;;;0.00;;
45932;SDS011;51011;46.790;17.184;2023-09-19T07:33:45;0.32;;;0.32;;
45932;SDS011;51011;46.790;17.184;2023-09-19T07:36:10;0.00;;;0.00;;
45932;SDS011;51011;46.790;17.184;2023-09-19T07:38:39;0.00;;;0.00;;
45932;SDS011;51011;46.790;17.184;2023-09-19T07:41:08;7.93;;;1.45;;
45932;SDS011;51011;46.790;17.184;2023-09-19T07:43:36;0.25;;;0.25;;
45932;SDS011;51011;46.790;17.184;2023-09-19T07:46:07;0.30;;;0.30;;
45932;SDS011;51011;46.790;17.184;2023-09-19T07:48:34;0.15;;;0.15;;
45932;SDS011;51011;46.790;17.184;2023-09-19T07:51:02;0.47;;;0.35;;
45932;SDS011;51011;46.790;17.184;2023-09-19T07:53:28;0.00;;;0.00;;
45932;SDS011;51011;46.790;17.184;2023-09-19T07:56:01;0.00;;;0.00;;
45932;SDS011;51011;46.790;17.184;2023-09-19T07:58:30;0.10;;;0.10;;
45932;SDS011;51011;46.790;17.184;2023-09-19T08:00:56;0.00;;;0.00;;
45932;SDS011;51011;46.790;17.184;2023-09-19T08:03:27;0.00;;;0.00;;
45932;SDS011;51011;46.790;17.184;2023-09-19T08:05:52;0.30;;;0.30;;
45932;SDS011;51011;46.790;17.184;2023-09-19T08:08:18;0.30;;;0.30;;
45932;SDS011;51011;46.790;17.184;2023-09-19T08:10:45;0.00;;;0.00;;
45932;SDS011;51011;46.790;17.184;2023-09-19T08:13:14;0.00;;;0.00;;
45932;SDS011;51011;46.790;17.184;2023-09-19T08:15:43;0.32;;;0.32;;
45932;SDS011;51011;46.790;17.184;2023-09-19T08:18:15;0.05;;;0.05;;
45932;SDS011;51011;46.790;17.184;2023-09-19T08:20:41;0.20;;;0.20;;
45932;SDS011;51011;46.790;17.184;2023-09-19T08:23:14;0.25;;;0.15;;
45932;SDS011;51011;46.790;17.184;2023-09-19T08:25:42;0.10;;;0.10;;
45932;SDS011;51011;46.790;17.184;2023-09-19T08:28:10;0.30;;;0.30;;
45932;SDS011;51011;46.790;17.184;2023-09-19T08:30:39;0.00;;;0.00;;
45932;SDS011;51011;46.790;17.184;2023-09-19T08:33:06;0.10;;;0.10;;
45932;SDS011;51011;46.790;17.184;2023-09-19T08:35:32;2.17;;;0.40;;
45932;SDS011;51011;46.790;17.184;2023-09-19T08:37:58;1.75;;;0.55;;
45932;SDS011;51011;46.790;17.184;2023-09-19T08:40:32;0.80;;;0.43;;
45932;SDS011;51011;46.790;17.184;2023-09-19T08:43:01;0.90;;;0.75;;
45932;SDS011;51011;46.790;17.184;2023-09-19T08:45:27;0.10;;;0.10;;
45932;SDS011;51011;46.790;17.184;2023-09-19T08:50:32;0.38;;;0.30;;
45932;SDS011;51011;46.790;17.184;2023-09-19T08:53:04;0.32;;;0.32;;
45932;SDS011;51011;46.790;17.184;2023-09-19T08:55:35;0.17;;;0.15;;
45932;SDS011;51011;46.790;17.184;2023-09-19T08:58:06;0.47;;;0.47;;
45932;SDS011;51011;46.790;17.184;2023-09-19T09:00:35;0.00;;;0.00;;
45932;SDS011;51011;46.790;17.184;2023-09-19T09:03:01;0.20;;;0.20;;
45932;SDS011;51011;46.790;17.184;2023-09-19T09:05:28;0.40;;;0.10;;
45932;SDS011;51011;46.790;17.184;2023-09-19T09:07:55;0.40;;;0.40;;
45932;SDS011;51011;46.790;17.184;2023-09-19T09:10:21;0.90;;;0.40;;
45932;SDS011;51011;46.790;17.184;2023-09-19T09:12:51;0.20;;;0.20;;
45932;SDS011;51011;46.790;17.184;2023-09-19T09:15:18;0.25;;;0.25;;
45932;SDS011;51011;46.790;17.184;2023-09-19T09:17:50;0.00;;;0.00;;
45932;SDS011;51011;46.790;17.184;2023-09-19T09:20:18;0.10;;;0.10;;
45932;SDS011;51011;46.790;17.184;2023-09-19T09:22:53;0.10;;;0.10;;
45932;SDS011;51011;46.790;17.184;2023-09-19T09:25:20;0.10;;;0.10;;
45932;SDS011;51011;46.790;17.184;2023-09-19T09:27:59;0.10;;;0.10;;
45932;SDS011;51011;46.790;17.184;2023-09-19T09:30:35;0.50;;;0.50;;
45932;SDS011;51011;46.790;17.184;2023-09-19T09:33:12;0.68;;;0.40;;
45932;SDS011;51011;46.790;17.184;2023-09-19T09:38:21;0.50;;;0.50;;
45932;SDS011;51011;46.790;17.184;2023-09-19T09:40:58;0.25;;;0.25;;
45932;SDS011;51011;46.790;17.184;2023-09-19T09:46:12;2.17;;;0.63;;
45932;SDS011;51011;46.790;17.184;2023-09-19T09:51:38;0.20;;;0.20;;
45932;SDS011;51011;46.790;17.184;2023-09-19T09:54:11;0.30;;;0.30;;
45932;SDS011;51011;46.790;17.184;2023-09-19T09:56:53;0.15;;;0.15;;
45932;SDS011;51011;46.790;17.184;2023-09-19T09:59:45;0.57;;;0.25;;
45932;SDS011;51011;46.790;17.184;2023-09-19T10:02:12;0.08;;;0.08;;
45932;SDS011;51011;46.790;17.184;2023-09-19T10:04:53;0.25;;;0.20;;
45932;SDS011;51011;46.790;17.184;2023-09-19T10:07:27;0.88;;;0.88;;
45932;SDS011;51011;46.790;17.184;2023-09-19T10:10:00;0.03;;;0.03;;
45932;SDS011;51011;46.790;17.184;2023-09-19T10:12:36;0.70;;;0.68;;
45932;SDS011;51011;46.790;17.184;2023-09-19T10:15:04;0.40;;;0.20;;
45932;SDS011;51011;46.790;17.184;2023-09-19T10:17:33;0.10;;;0.10;;
45932;SDS011;51011;46.790;17.184;2023-09-19T10:20:02;0.40;;;0.40;;
45932;SDS011;51011;46.790;17.184;2023-09-19T10:22:45;0.57;;;0.47;;
45932;SDS011;51011;46.790;17.184;2023-09-19T10:25:23;0.52;;;0.47;;
45932;SDS011;51011;46.790;17.184;2023-09-19T10:28:02;0.20;;;0.17;;
45932;SDS011;51011;46.790;17.184;2023-09-19T10:30:29;0.30;;;0.30;;
45932;SDS011;51011;46.790;17.184;2023-09-19T10:33:00;0.20;;;0.20;;
45932;SDS011;51011;46.790;17.184;2023-09-19T10:35:27;0.20;;;0.20;;
45932;SDS011;51011;46.790;17.184;2023-09-19T10:37:54;0.50;;;0.50;;
45932;SDS011;51011;46.790;17.184;2023-09-19T10:40:23;0.50;;;0.50;;
45932;SDS011;51011;46.790;17.184;2023-09-19T10:43:05;0.30;;;0.30;;
45932;SDS011;51011;46.790;17.184;2023-09-19T10:45:32;0.10;;;0.10;;
45932;SDS011;51011;46.790;17.184;2023-09-19T10:47:59;0.15;;;0.15;;
45932;SDS011;51011;46.790;17.184;2023-09-19T10:50:26;0.93;;;0.45;;
45932;SDS011;51011;46.790;17.184;2023-09-19T10:52:56;0.93;;;0.90;;
45932;SDS011;51011;46.790;17.184;2023-09-19T10:55:30;0.10;;;0.10;;
45932;SDS011;51011;46.790;17.184;2023-09-19T10:57:58;0.20;;;0.20;;
45932;SDS011;51011;46.790;17.184;2023-09-19T11:00:58;0.22;;;0.20;;
45932;SDS011;51011;46.790;17.184;2023-09-19T11:03:43;0.70;;;0.70;;
45932;SDS011;51011;46.790;17.184;2023-09-19T11:06:16;0.15;;;0.15;;
45932;SDS011;51011;46.790;17.184;2023-09-19T11:08:57;0.20;;;0.20;;
45932;SDS011;51011;46.790;17.184;2023-09-19T11:11:44;0.30;;;0.30;;
45932;SDS011;51011;46.790;17.184;2023-09-19T11:30:46;2.00;;;0.52;;
45932;SDS011;51011;46.790;17.184;2023-09-19T11:33:19;0.20;;;0.20;;
45932;SDS011;51011;46.790;17.184;2023-09-19T11:36:05;0.28;;;0.28;;
45932;SDS011;51011;46.790;17.184;2023-09-19T11:46:24;0.30;;;0.25;;
45932;SDS011;51011;46.790;17.184;2023-09-19T11:48:50;0.20;;;0.20;;
45932;SDS011;51011;46.790;17.184;2023-09-19T11:51:23;0.38;;;0.38;;
45932;SDS011;51011;46.790;17.184;2023-09-19T11:53:52;0.28;;;0.28;;
45932;SDS011;51011;46.790;17.184;2023-09-19T11:56:24;0.20;;;0.20;;
45932;SDS011;51011;46.790;17.184;2023-09-19T11:58:55;0.10;;;0.10;;
45932;SDS011;51011;46.790;17.184;2023-09-19T12:01:32;0.17;;;0.17;;
45932;SDS011;51011;46.790;17.184;2023-09-19T12:04:00;0.20;;;0.20;;
45932;SDS011;51011;46.790;17.184;2023-09-19T12:06:27;0.22;;;0.22;;
45932;SDS011;51011;46.790;17.184;2023-09-19T12:08:57;0.75;;;0.52;;
45932;SDS011;51011;46.790;17.184;2023-09-19T12:11:30;0.13;;;0.13;;
45932;SDS011;51011;46.790;17.184;2023-09-19T12:14:00;1.65;;;1.05;;
45932;SDS011;51011;46.790;17.184;2023-09-19T12:16:27;0.13;;;0.13;;
45932;SDS011;51011;46.790;17.184;2023-09-19T12:18:56;0.28;;;0.28;;
45932;SDS011;51011;46.790;17.184;2023-09-19T12:21:23;0.13;;;0.13;;
45932;SDS011;51011;46.790;17.184;2023-09-19T12:26:45;0.30;;;0.30;;
45932;SDS011;51011;46.790;17.184;2023-09-19T12:29:21;0.28;;;0.28;;
45932;SDS011;51011;46.790;17.184;2023-09-19T12:31:56;0.20;;;0.20;;
45932;SDS011;51011;46.790;17.184;2023-09-19T12:34:23;0.47;;;0.25;;
45932;SDS011;51011;46.790;17.184;2023-09-19T12:37:05;0.20;;;0.20;;
45932;SDS011;51011;46.790;17.184;2023-09-19T12:39:43;0.17;;;0.17;;
45932;SDS011;51011;46.790;17.184;2023-09-19T12:42:19;0.98;;;0.95;;
45932;SDS011;51011;46.790;17.184;2023-09-19T12:44:47;0.10;;;0.10;;
45932;SDS011;51011;46.790;17.184;2023-09-19T12:47:15;1.25;;;0.60;;
45932;SDS011;51011;46.790;17.184;2023-09-19T12:55:18;0.22;;;0.22;;
45932;SDS011;51011;46.790;17.184;2023-09-19T12:57:58;0.30;;;0.30;;
45932;SDS011;51011;46.790;17.184;2023-09-19T13:00:33;0.32;;;0.32;;
45932;SDS011;51011;46.790;17.184;2023-09-19T13:06:03;0.57;;;0.40;;
45932;SDS011;51011;46.790;17.184;2023-09-19T13:08:34;0.30;;;0.30;;
45932;SDS011;51011;46.790;17.184;2023-09-19T13:11:15;0.17;;;0.17;;
45932;SDS011;51011;46.790;17.184;2023-09-19T13:13:45;0.98;;;0.65;;
45932;SDS011;51011;46.790;17.184;2023-09-19T13:16:20;0.30;;;0.30;;
45932;SDS011;51011;46.790;17.184;2023-09-19T13:18:52;2.63;;;0.30;;
45932;SDS011;51011;46.790;17.184;2023-09-19T13:21:30;0.30;;;0.30;;
45932;SDS011;51011;46.790;17.184;2023-09-19T13:24:17;0.30;;;0.30;;
45932;SDS011;51011;46.790;17.184;2023-09-19T13:26:53;0.20;;;0.20;;
45932;SDS011;51011;46.790;17.184;2023-09-19T13:29:22;0.30;;;0.30;;
45932;SDS011;51011;46.790;17.184;2023-09-19T13:31:48;0.38;;;0.38;;
45932;SDS011;51011;46.790;17.184;2023-09-19T13:34:14;0.15;;;0.15;;
45932;SDS011;51011;46.790;17.184;2023-09-19T13:36:41;0.30;;;0.30;;
45932;SDS011;51011;46.790;17.184;2023-09-19T13:39:09;0.40;;;0.40;;
45932;SDS011;51011;46.790;17.184;2023-09-19T13:41:36;0.38;;;0.38;;
45932;SDS011;51011;46.790;17.184;2023-09-19T13:44:05;0.50;;;0.40;;
45932;SDS011;51011;46.790;17.184;2023-09-19T13:46:31;0.88;;;0.63;;
45932;SDS011;51011;46.790;17.184;2023-09-19T13:49:00;1.10;;;0.65;;
45932;SDS011;51011;46.790;17.184;2023-09-19T13:51:31;0.10;;;0.10;;
45932;SDS011;51011;46.790;17.184;2023-09-19T13:53:57;0.77;;;0.70;;
45932;SDS011;51011;46.790;17.184;2023-09-19T13:56:25;0.17;;;0.17;;
45932;SDS011;51011;46.790;17.184;2023-09-19T13:58:53;0.25;;;0.20;;
45932;SDS011;51011;46.790;17.184;2023-09-19T14:01:19;0.40;;;0.40;;
45932;SDS011;51011;46.790;17.184;2023-09-19T14:03:45;0.55;;;0.43;;
45932;SDS011;51011;46.790;17.184;2023-09-19T14:06:14;0.20;;;0.20;;
45932;SDS011;51011;46.790;17.184;2023-09-19T14:08:40;1.55;;;1.17;;
45932;SDS011;51011;46.790;17.184;2023-09-19T14:11:06;0.68;;;0.60;;
45932;SDS011;51011;46.790;17.184;2023-09-19T14:13:32;0.20;;;0.20;;
45932;SDS011;51011;46.790;17.184;2023-09-19T14:16:04;0.25;;;0.25;;
45932;SDS011;51011;46.790;17.184;2023-09-19T14:18:30;0.22;;;0.22;;
45932;SDS011;51011;46.790;17.184;2023-09-19T14:20:56;0.15;;;0.15;;
45932;SDS011;51011;46.790;17.184;2023-09-19T14:23:22;0.40;;;0.40;;
45932;SDS011;51011;46.790;17.184;2023-09-19T14:44:37;0.57;;;0.40;;
45932;SDS011;51011;46.790;17.184;2023-09-19T14:47:03;0.10;;;0.10;;
45932;SDS011;51011;46.790;17.184;2023-09-19T14:49:36;0.40;;;0.40;;
45932;SDS011;51011;46.790;17.184;2023-09-19T14:52:08;0.77;;;0.68;;
45932;SDS011;51011;46.790;17.184;2023-09-19T14:54:36;0.45;;;0.43;;
45932;SDS011;51011;46.790;17.184;2023-09-19T14:57:06;0.25;;;0.25;;
45932;SDS011;51011;46.790;17.184;2023-09-19T14:59:34;1.25;;;1.13;;
45932;SDS011;51011;46.790;17.184;2023-09-19T15:02:03;0.65;;;0.40;;
45932;SDS011;51011;46.790;17.184;2023-09-19T15:04:30;0.32;;;0.32;;
45932;SDS011;51011;46.790;17.184;2023-09-19T15:06:57;0.65;;;0.65;;
45932;SDS011;51011;46.790;17.184;2023-09-19T15:09:24;0.15;;;0.15;;
45932;SDS011;51011;46.790;17.184;2023-09-19T15:11:52;0.40;;;0.40;;
45932;SDS011;51011;46.790;17.184;2023-09-19T15:14:18;0.10;;;0.10;;
45932;SDS011;51011;46.790;17.184;2023-09-19T15:16:48;0.20;;;0.20;;
45932;SDS011;51011;46.790;17.184;2023-09-19T15:19:14;0.10;;;0.10;;
45932;SDS011;51011;46.790;17.184;2023-09-19T15:21:41;1.40;;;1.30;;
45932;SDS011;51011;46.790;17.184;2023-09-19T15:24:07;0.20;;;0.20;;
45932;SDS011;51011;46.790;17.184;2023-09-19T15:26:36;0.10;;;0.10;;
45932;SDS011;51011;46.790;17.184;2023-09-19T15:29:05;0.10;;;0.10;;
45932;SDS011;51011;46.790;17.184;2023-09-19T15:31:32;0.10;;;0.10;;
45932;SDS011;51011;46.790;17.184;2023-09-19T15:33:57;0.20;;;0.20;;
45932;SDS011;51011;46.790;17.184;2023-09-19T15:36:23;0.93;;;0.50;;
45932;SDS011;51011;46.790;17.184;2023-09-19T15:38:57;0.00;;;0.00;;
45932;SDS011;51011;46.790;17.184;2023-09-19T15:41:32;0.30;;;0.30;;
45932;SDS011;51011;46.790;17.184;2023-09-19T15:44:00;0.10;;;0.10;;
45932;SDS011;51011;46.790;17.184;2023-09-19T15:46:30;0.30;;;0.30;;
45932;SDS011;51011;46.790;17.184;2023-09-19T15:48:57;0.55;;;0.55;;
45932;SDS011;51011;46.790;17.184;2023-09-19T15:51:23;0.35;;;0.28;;
45932;SDS011;51011;46.790;17.184;2023-09-19T15:53:51;0.65;;;0.35;;
45932;SDS011;51011;46.790;17.184;2023-09-19T15:56:18;0.35;;;0.35;;
45932;SDS011;51011;46.790;17.184;2023-09-19T15:58:48;0.63;;;0.63;;
45932;SDS011;51011;46.790;17.184;2023-09-19T16:01:19;0.15;;;0.15;;
45932;SDS011;51011;46.790;17.184;2023-09-19T16:03:47;0.00;;;0.00;;
45932;SDS011;51011;46.790;17.184;2023-09-19T16:06:14;0.00;;;0.00;;
45932;SDS011;51011;46.790;17.184;2023-09-19T16:08:49;0.00;;;0.00;;
45932;SDS011;51011;46.790;17.184;2023-09-19T16:11:17;0.15;;;0.10;;
45932;SDS011;51011;46.790;17.184;2023-09-19T16:13:43;0.28;;;0.28;;
45932;SDS011;51011;46.790;17.184;2023-09-19T16:16:13;0.47;;;0.47;;
45932;SDS011;51011;46.790;17.184;2023-09-19T16:18:45;0.10;;;0.10;;